Time;durP1;ratioP1;P1;durP2;ratioP2;P2;SDS_P1;SDS_P2;PMS_P1;PMS_P2;Temp;Humidity;BMP_temperature;BMP_pressure;BME280_temperature;BME280_humidity;BME280_pressure;Samples;Min_cycle;Max_cycle;Signal;HPM_P1;HPM_P2
2021/01/15 00:01:48;;;;;;;10.93;8.03;;;1.70;99.90;;;;;;5002421;28;20701;-77
2021/01/15 00:04:14;;;;;;;12.23;8.13;;;1.70;99.90;;;;;;5002402;28;20219;-76
2021/01/15 00:06:40;;;;;;;13.43;8.63;;;1.70;99.90;;;;;;5003571;28;20202;-76
2021/01/15 00:09:07;;;;;;;9.70;7.20;;;1.70;99.90;;;;;;5002921;28;20667;-75
2021/01/15 00:11:34;;;;;;;12.27;8.13;;;1.70;99.90;;;;;;5001982;28;20223;-75
2021/01/15 00:14:02;;;;;;;10.40;7.87;;;1.70;99.90;;;;;;5013892;28;20292;-80
2021/01/15 00:16:30;;;;;;;10.57;7.77;;;1.70;99.90;;;;;;5022443;28;20206;-78
2021/01/15 00:18:58;;;;;;;11.93;8.20;;;1.70;99.90;;;;;;5022442;28;20190;-75
2021/01/15 00:21:26;;;;;;;10.97;7.60;;;1.70;99.90;;;;;;5021413;28;20241;-76
2021/01/15 00:23:54;;;;;;;10.67;7.50;;;1.70;99.90;;;;;;5021932;28;20606;-77
2021/01/15 00:26:21;;;;;;;11.90;8.17;;;1.70;99.90;;;;;;5022679;28;20210;-76
2021/01/15 00:28:48;;;;;;;10.90;7.07;;;1.70;99.90;;;;;;5021748;28;20217;-77
2021/01/15 00:31:14;;;;;;;19.57;10.90;;;1.70;99.90;;;;;;5021819;28;20203;-76
2021/01/15 00:33:42;;;;;;;11.97;7.73;;;1.80;99.90;;;;;;5022670;28;20548;-76
2021/01/15 00:36:09;;;;;;;11.93;7.77;;;1.80;99.90;;;;;;5021918;28;20206;-76
2021/01/15 00:38:35;;;;;;;11.90;8.37;;;1.80;99.90;;;;;;5021526;28;20534;-78
2021/01/15 00:41:04;;;;;;;10.67;8.20;;;1.80;99.90;;;;;;5022308;28;20271;-77
2021/01/15 00:43:30;;;;;;;13.13;8.63;;;1.90;99.90;;;;;;5021303;28;20213;-77
2021/01/15 00:45:57;;;;;;;9.33;7.20;;;1.80;99.90;;;;;;5021939;28;20610;-76
2021/01/15 00:48:23;;;;;;;10.97;7.77;;;1.80;99.90;;;;;;5022100;28;20209;-75
2021/01/15 00:50:50;;;;;;;11.47;8.10;;;1.90;99.90;;;;;;5020907;28;20234;-76
2021/01/15 00:53:16;;;;;;;12.73;9.57;;;1.90;99.90;;;;;;5021837;28;20202;-76
2021/01/15 00:55:43;;;;;;;9.80;7.97;;;2.00;99.90;;;;;;5021543;28;20206;-76
2021/01/15 00:58:12;;;;;;;9.27;7.30;;;2.00;99.90;;;;;;5021594;28;20603;-77
2021/01/15 01:00:38;;;;;;;9.17;6.83;;;2.00;99.90;;;;;;5022026;28;20227;-76
2021/01/15 01:03:06;;;;;;;14.63;7.57;;;1.90;99.90;;;;;;5020587;28;20210;-77
2021/01/15 01:05:33;;;;;;;10.33;8.17;;;1.90;99.90;;;;;;5021519;28;20365;-77
2021/01/15 01:08:00;;;;;;;9.63;7.70;;;1.90;99.90;;;;;;5022018;28;20206;-76
2021/01/15 01:10:27;;;;;;;11.07;7.50;;;2.00;99.90;;;;;;5024403;28;20199;-77
2021/01/15 01:12:54;;;;;;;10.93;7.63;;;2.00;99.90;;;;;;5021768;28;20222;-76
2021/01/15 01:15:20;;;;;;;9.70;7.27;;;2.00;99.90;;;;;;5005821;28;20203;-76
2021/01/15 01:17:47;;;;;;;10.43;7.83;;;2.00;99.90;;;;;;5005100;28;20591;-75
2021/01/15 01:20:13;;;;;;;12.77;7.03;;;2.00;99.90;;;;;;5006082;28;20239;-79
2021/01/15 01:22:39;;;;;;;8.90;6.23;;;2.00;99.90;;;;;;5005315;28;20203;-77
2021/01/15 01:25:08;;;;;;;8.20;5.67;;;2.00;99.90;;;;;;5004821;28;20662;-77
2021/01/15 01:27:34;;;;;;;8.07;5.73;;;2.00;99.90;;;;;;5005304;28;20215;-77
2021/01/15 01:30:00;;;;;;;6.93;5.73;;;2.00;99.90;;;;;;5005077;28;20202;-77
2021/01/15 01:32:27;;;;;;;8.53;6.13;;;2.00;99.90;;;;;;5004442;28;20198;-80
2021/01/15 01:34:53;;;;;;;9.67;6.37;;;2.00;99.90;;;;;;5005081;28;20950;-78
2021/01/15 01:37:19;;;;;;;8.23;6.07;;;1.90;99.90;;;;;;5005062;28;20211;-78
2021/01/15 01:39:45;;;;;;;11.10;6.83;;;2.00;99.90;;;;;;5004185;28;20203;-79
2021/01/15 01:42:12;;;;;;;7.93;6.00;;;2.00;99.90;;;;;;5004808;28;20234;-82
2021/01/15 01:44:39;;;;;;;7.87;5.67;;;2.00;99.90;;;;;;5010648;28;20254;-81
2021/01/15 01:47:05;;;;;;;6.63;5.87;;;2.10;99.90;;;;;;5010897;28;20265;-82
2021/01/15 01:49:32;;;;;;;9.40;6.40;;;2.00;99.90;;;;;;5010126;28;20207;-80
2021/01/15 01:52:03;;;;;;;8.90;6.27;;;2.00;99.90;;;;;;5006117;28;20238;-77
2021/01/15 01:54:33;;;;;;;7.23;6.10;;;2.00;99.90;;;;;;5009431;28;20206;-81
2021/01/15 01:56:59;;;;;;;7.17;5.70;;;2.00;99.90;;;;;;5009510;28;20620;-82
2021/01/15 01:59:26;;;;;;;8.13;6.30;;;2.10;99.90;;;;;;5009012;28;20199;-78
2021/01/15 02:01:52;;;;;;;7.40;5.60;;;2.00;99.90;;;;;;5008366;28;20954;-78
2021/01/15 02:04:19;;;;;;;7.77;6.00;;;2.00;99.90;;;;;;5009127;28;20204;-79
2021/01/15 02:06:45;;;;;;;7.23;5.87;;;2.00;99.90;;;;;;5006198;28;20212;-82
2021/01/15 02:09:11;;;;;;;8.10;6.60;;;2.10;99.90;;;;;;5008984;28;20208;-78
2021/01/15 02:11:55;;;;;;;9.27;6.77;;;2.10;99.90;;;;;;5009527;28;20568;-79
2021/01/15 02:14:31;;;;;;;8.07;5.63;;;2.10;99.90;;;;;;5023170;28;20190;-80
2021/01/15 02:16:59;;;;;;;8.40;6.37;;;2.00;99.90;;;;;;5028657;28;20199;-80
2021/01/15 02:20:01;;;;;;;8.03;5.50;;;2.00;99.90;;;;;;5012304;28;20216;-79
2021/01/15 02:22:44;;;;;;;7.63;5.73;;;2.00;99.90;;;;;;5008719;28;20199;-83
2021/01/15 02:26:01;;;;;;;8.10;5.53;;;2.00;99.90;;;;;;5007010;28;20203;-77
2021/01/15 02:28:44;;;;;;;6.30;5.07;;;2.00;99.90;;;;;;5006270;28;20187;-79
2021/01/15 02:31:35;;;;;;;6.87;5.10;;;2.00;99.90;;;;;;5004516;28;20261;-82
2021/01/15 02:34:23;;;;;;;6.20;5.07;;;2.00;99.90;;;;;;5004309;28;20199;-77
2021/01/15 02:36:57;;;;;;;7.10;5.13;;;2.10;99.90;;;;;;5003997;28;20203;-75
2021/01/15 02:39:36;;;;;;;6.97;4.70;;;2.00;99.90;;;;;;5004759;28;20295;-76
2021/01/15 02:42:03;;;;;;;6.93;4.90;;;2.00;99.90;;;;;;5003597;28;20230;-76
2021/01/15 02:44:32;;;;;;;7.83;5.20;;;2.00;99.90;;;;;;5004171;28;20207;-78
2021/01/15 02:47:00;;;;;;;7.93;5.33;;;2.00;99.90;;;;;;5004978;28;20211;-79
2021/01/15 02:49:28;;;;;;;6.73;5.20;;;2.00;99.90;;;;;;5003573;28;20342;-76
2021/01/15 02:51:55;;;;;;;7.47;5.27;;;2.10;99.90;;;;;;5004160;28;20679;-76
2021/01/15 02:54:21;;;;;;;6.87;5.20;;;2.00;99.90;;;;;;5004654;28;20216;-76
2021/01/15 02:56:48;;;;;;;5.63;5.00;;;2.10;99.90;;;;;;5004185;28;20506;-76
2021/01/15 02:59:14;;;;;;;6.03;5.43;;;2.00;99.90;;;;;;5003907;28;20246;-76
2021/01/15 03:01:49;;;;;;;8.30;5.50;;;2.00;99.90;;;;;;5003548;28;20995;-76
2021/01/15 03:04:24;;;;;;;6.73;5.13;;;2.10;99.90;;;;;;5004637;28;20357;-76
2021/01/15 03:06:55;;;;;;;6.97;5.03;;;2.10;99.90;;;;;;5003573;28;20179;-76
2021/01/15 03:09:22;;;;;;;7.10;5.03;;;2.00;99.90;;;;;;5003119;28;20202;-75
2021/01/15 03:11:52;;;;;;;5.97;5.27;;;1.90;99.90;;;;;;5004983;28;20222;-77
2021/01/15 03:14:19;;;;;;;8.47;5.40;;;1.90;99.90;;;;;;5017840;28;20241;-76
2021/01/15 03:16:46;;;;;;;10.23;5.27;;;2.00;99.90;;;;;;5024030;28;20203;-76
2021/01/15 03:19:13;;;;;;;6.73;5.10;;;2.00;99.90;;;;;;5024407;28;20321;-76
2021/01/15 03:21:40;;;;;;;6.83;5.07;;;1.90;99.90;;;;;;5023335;28;20223;-77
2021/01/15 03:24:08;;;;;;;5.83;4.20;;;1.90;99.90;;;;;;5023211;28;20397;-79
2021/01/15 03:26:34;;;;;;;6.77;4.97;;;1.90;99.90;;;;;;5025164;28;20206;-79
2021/01/15 03:29:01;;;;;;;7.53;4.83;;;1.90;99.90;;;;;;5025164;28;20195;-83
2021/01/15 03:31:28;;;;;;;6.63;5.17;;;1.90;99.90;;;;;;5025021;28;20501;-79
2021/01/15 03:33:54;;;;;;;5.93;4.90;;;1.90;99.90;;;;;;5025245;28;20207;-79
2021/01/15 03:36:21;;;;;;;6.50;5.07;;;2.00;99.90;;;;;;5027042;28;20199;-83
2021/01/15 03:38:47;;;;;;;7.80;5.13;;;1.90;99.90;;;;;;5025271;28;20325;-79
2021/01/15 03:41:14;;;;;;;7.17;4.77;;;1.90;99.90;;;;;;5025850;28;20589;-81
2021/01/15 03:43:41;;;;;;;6.77;4.13;;;1.90;99.90;;;;;;5026723;28;20257;-81
2021/01/15 03:46:07;;;;;;;5.70;4.40;;;1.80;99.90;;;;;;5015922;28;20746;-80
2021/01/15 03:48:33;;;;;;;7.67;5.43;;;1.90;99.90;;;;;;5005497;28;20276;-76
2021/01/15 03:50:59;;;;;;;6.57;4.73;;;1.90;99.90;;;;;;5006573;28;20242;-75
2021/01/15 03:53:26;;;;;;;5.83;4.17;;;2.00;99.90;;;;;;5006730;28;20576;-80
2021/01/15 03:55:52;;;;;;;6.73;4.30;;;2.00;99.90;;;;;;5005865;28;20218;-82
2021/01/15 03:58:19;;;;;;;6.40;4.73;;;2.00;99.90;;;;;;5003295;28;20818;-76
2021/01/15 04:00:46;;;;;;;7.30;4.60;;;2.00;99.90;;;;;;5000565;28;20288;-77
2021/01/15 04:03:12;;;;;;;6.23;4.67;;;2.00;99.90;;;;;;5005232;28;20206;-77
2021/01/15 04:05:38;;;;;;;7.07;4.77;;;2.10;99.90;;;;;;5004911;28;20202;-80
2021/01/15 04:08:05;;;;;;;6.50;4.43;;;2.10;99.90;;;;;;5004962;28;20215;-77
2021/01/15 04:10:31;;;;;;;7.57;6.07;;;2.10;99.90;;;;;;5005219;28;20786;-78
2021/01/15 04:12:58;;;;;;;6.00;4.60;;;2.10;99.90;;;;;;5008414;28;20202;-77
2021/01/15 04:15:25;;;;;;;7.13;5.67;;;2.00;99.90;;;;;;5024093;28;20199;-76
2021/01/15 04:17:51;;;;;;;6.90;5.90;;;2.10;99.90;;;;;;5026085;28;20206;-77
2021/01/15 04:20:18;;;;;;;6.97;5.60;;;2.10;99.90;;;;;;5025459;28;20510;-76
2021/01/15 04:22:45;;;;;;;8.07;5.97;;;2.00;99.90;;;;;;5024263;28;20614;-75
2021/01/15 04:25:13;;;;;;;7.50;5.20;;;2.00;99.90;;;;;;5025444;28;20206;-81
2021/01/15 04:27:40;;;;;;;6.77;5.60;;;2.00;99.90;;;;;;5026281;28;20219;-76
2021/01/15 04:30:09;;;;;;;6.57;5.87;;;2.00;99.90;;;;;;5013323;28;20258;-77
2021/01/15 04:32:42;;;;;;;9.93;6.17;;;1.90;99.90;;;;;;5005393;28;20211;-75
2021/01/15 04:35:10;;;;;;;6.70;5.73;;;1.90;99.90;;;;;;5006169;28;20209;-83
2021/01/15 04:37:36;;;;;;;8.23;6.27;;;1.90;99.90;;;;;;5005734;28;20596;-76
2021/01/15 04:40:03;;;;;;;10.73;6.37;;;1.90;99.90;;;;;;5008445;28;20206;-75
2021/01/15 04:42:33;;;;;;;8.93;7.23;;;1.80;99.90;;;;;;5009127;28;20230;-81
2021/01/15 04:44:59;;;;;;;7.17;5.60;;;1.90;99.90;;;;;;5012309;28;20591;-76
2021/01/15 04:47:26;;;;;;;8.03;6.00;;;1.90;99.90;;;;;;5011568;28;20218;-78
2021/01/15 04:49:53;;;;;;;8.47;6.17;;;1.90;99.90;;;;;;5010692;28;20203;-80
2021/01/15 04:52:21;;;;;;;8.43;6.37;;;1.90;99.90;;;;;;5009819;28;20246;-81
2021/01/15 04:54:52;;;;;;;8.87;5.70;;;1.80;99.90;;;;;;5009136;28;20226;-79
2021/01/15 04:57:19;;;;;;;7.83;5.57;;;1.90;99.90;;;;;;5009987;28;20203;-78
2021/01/15 04:59:47;;;;;;;8.00;5.50;;;1.80;99.90;;;;;;5009402;28;20203;-79
2021/01/15 05:02:16;;;;;;;8.00;5.77;;;1.90;99.90;;;;;;5007631;28;20227;-80
2021/01/15 05:04:43;;;;;;;7.47;5.40;;;1.80;99.90;;;;;;5009303;28;20368;-78
2021/01/15 05:07:11;;;;;;;5.53;4.53;;;1.80;99.90;;;;;;5009418;28;20495;-81
2021/01/15 05:09:40;;;;;;;8.17;5.20;;;1.80;99.90;;;;;;5008770;28;20270;-78
2021/01/15 05:12:08;;;;;;;8.63;5.43;;;1.70;99.90;;;;;;5009879;28;20207;-82
2021/01/15 05:14:35;;;;;;;8.47;5.53;;;1.70;99.90;;;;;;5026208;28;20298;-76
2021/01/15 05:17:04;;;;;;;9.40;5.70;;;1.70;99.90;;;;;;5028711;28;20213;-82
2021/01/15 05:19:31;;;;;;;7.73;5.50;;;1.70;99.90;;;;;;5029116;28;20233;-78
2021/01/15 05:21:57;;;;;;;6.47;5.27;;;1.70;99.90;;;;;;5029130;28;20485;-79
2021/01/15 05:24:26;;;;;;;7.23;5.73;;;1.80;99.90;;;;;;5027990;28;20206;-80
2021/01/15 05:26:53;;;;;;;8.07;5.63;;;1.70;99.90;;;;;;5028725;28;20195;-79
2021/01/15 05:29:19;;;;;;;7.73;5.27;;;1.70;99.90;;;;;;5018643;28;20199;-82
2021/01/15 05:31:53;;;;;;;7.33;5.43;;;1.70;99.90;;;;;;5025317;28;20211;-81
2021/01/15 05:34:20;;;;;;;7.80;5.40;;;1.70;99.90;;;;;;5018135;28;20606;-79
2021/01/15 05:36:47;;;;;;;8.00;5.87;;;1.70;99.90;;;;;;5026135;28;20210;-82
2021/01/15 05:39:16;;;;;;;9.30;5.80;;;1.70;99.90;;;;;;5010078;28;20214;-82
2021/01/15 05:41:45;;;;;;;5.97;5.00;;;1.80;99.90;;;;;;5006513;28;20234;-77
2021/01/15 05:44:12;;;;;;;7.43;5.57;;;1.70;99.90;;;;;;5008385;28;20208;-77
2021/01/15 05:46:47;;;;;;;8.37;5.47;;;1.80;99.90;;;;;;5008144;28;20195;-82
2021/01/15 05:49:13;;;;;;;6.33;5.00;;;1.70;99.90;;;;;;5007133;28;20290;-79
2021/01/15 05:51:40;;;;;;;6.10;4.90;;;1.70;99.90;;;;;;5003999;28;20246;-77
2021/01/15 05:54:08;;;;;;;6.17;4.90;;;1.80;99.90;;;;;;5005249;28;20203;-77
2021/01/15 05:56:47;;;;;;;6.77;5.50;;;1.70;99.90;;;;;;5005987;28;20269;-81
2021/01/15 05:59:14;;;;;;;9.10;4.80;;;1.70;99.90;;;;;;5007890;28;20218;-83
2021/01/15 06:01:46;;;;;;;8.53;6.30;;;1.70;99.90;;;;;;5008769;28;20231;-82
2021/01/15 06:04:14;;;;;;;7.17;5.47;;;1.70;99.90;;;;;;5008594;28;20555;-81
2021/01/15 06:06:42;;;;;;;6.90;5.43;;;1.70;99.90;;;;;;5008151;28;20203;-78
2021/01/15 06:09:10;;;;;;;8.80;5.97;;;1.70;99.90;;;;;;5008076;28;20211;-77
2021/01/15 06:11:38;;;;;;;6.27;5.10;;;1.70;99.90;;;;;;5008257;28;20199;-79
2021/01/15 06:14:17;;;;;;;8.40;5.50;;;1.70;99.90;;;;;;5008549;28;20215;-79
2021/01/15 06:16:43;;;;;;;6.03;4.70;;;1.80;99.90;;;;;;5008909;28;20203;-78
2021/01/15 06:19:10;;;;;;;6.53;5.53;;;1.70;99.90;;;;;;5007848;28;20215;-81
2021/01/15 06:21:36;;;;;;;7.33;5.23;;;1.70;99.90;;;;;;5008368;28;20717;-78
2021/01/15 06:24:07;;;;;;;7.10;5.17;;;1.70;99.90;;;;;;5008880;28;20192;-79
2021/01/15 06:26:35;;;;;;;5.60;5.00;;;1.70;99.90;;;;;;5007885;28;20188;-81
2021/01/15 06:29:09;;;;;;;6.57;4.97;;;1.70;99.90;;;;;;5008893;28;20214;-83
2021/01/15 06:31:49;;;;;;;6.13;5.13;;;1.70;99.90;;;;;;5007593;28;20208;-77
2021/01/15 06:34:18;;;;;;;6.10;4.70;;;1.70;99.90;;;;;;5007709;28;20210;-77
2021/01/15 06:36:54;;;;;;;6.63;4.87;;;1.70;99.90;;;;;;5006332;28;20207;-79
2021/01/15 06:39:22;;;;;;;5.90;5.13;;;1.70;99.90;;;;;;5008388;28;20202;-79
2021/01/15 06:42:01;;;;;;;8.53;5.57;;;1.70;99.90;;;;;;5006643;28;20822;-82
2021/01/15 06:44:29;;;;;;;7.40;5.83;;;1.70;99.90;;;;;;5007468;28;20207;-80
2021/01/15 06:47:02;;;;;;;6.97;5.97;;;1.70;99.90;;;;;;5007718;28;20518;-80
2021/01/15 06:49:30;;;;;;;7.57;5.63;;;1.80;99.90;;;;;;5007430;28;20207;-79
2021/01/15 06:51:59;;;;;;;5.83;5.23;;;1.80;99.90;;;;;;5009329;28;20322;-80
2021/01/15 06:54:32;;;;;;;8.63;6.00;;;1.80;99.90;;;;;;5008670;28;20219;-82
2021/01/15 06:57:15;;;;;;;7.80;5.70;;;1.80;99.90;;;;;;5009453;28;20203;-81
2021/01/15 06:59:51;;;;;;;7.80;5.73;;;1.80;99.90;;;;;;5006028;28;20210;-81
2021/01/15 07:02:38;;;;;;;9.47;5.93;;;1.80;99.90;;;;;;5006358;28;20341;-78
2021/01/15 07:05:05;;;;;;;6.70;5.37;;;1.80;99.90;;;;;;5008021;28;20234;-82
2021/01/15 07:07:32;;;;;;;8.20;5.97;;;1.80;99.90;;;;;;5004844;28;20211;-82
2021/01/15 07:10:00;;;;;;;7.03;5.43;;;1.80;99.90;;;;;;5003459;28;20262;-81
2021/01/15 07:12:27;;;;;;;7.63;5.33;;;1.80;99.90;;;;;;5003217;28;20207;-76
2021/01/15 07:14:56;;;;;;;7.67;5.90;;;1.80;99.90;;;;;;5022893;28;20366;-76
2021/01/15 07:17:32;;;;;;;8.57;5.57;;;1.80;99.90;;;;;;5022958;28;20206;-77
2021/01/15 07:20:09;;;;;;;6.83;5.37;;;1.80;99.90;;;;;;5023745;28;20493;-76
2021/01/15 07:22:37;;;;;;;7.93;5.97;;;1.80;99.90;;;;;;5023003;28;20234;-76
2021/01/15 07:25:05;;;;;;;6.97;5.20;;;1.80;99.90;;;;;;5024393;28;20199;-78
2021/01/15 07:27:32;;;;;;;10.13;5.77;;;1.80;99.90;;;;;;5022681;28;20797;-78
2021/01/15 07:30:00;;;;;;;6.53;4.77;;;1.80;99.90;;;;;;5022439;28;20195;-80
2021/01/15 07:32:30;;;;;;;8.37;5.70;;;1.80;99.90;;;;;;5024593;28;20657;-78
2021/01/15 07:34:58;;;;;;;7.90;5.17;;;1.80;99.90;;;;;;5023586;28;20195;-76
2021/01/15 07:37:26;;;;;;;7.40;5.50;;;1.80;99.90;;;;;;5023118;28;20731;-76
2021/01/15 07:40:10;;;;;;;7.47;5.53;;;1.80;99.90;;;;;;5024524;28;20206;-85
2021/01/15 07:42:44;;;;;;;7.47;5.30;;;1.80;99.90;;;;;;5022562;28;20234;-76
2021/01/15 07:45:49;;;;;;;11.03;5.73;;;1.80;99.90;;;;;;5023193;28;20839;-77
2021/01/15 08:10:09;;;;;;;7.07;5.00;;;1.80;99.90;;;;;;4837155;29;20208;-79
2021/01/15 08:12:40;;;;;;;9.40;7.27;;;1.80;99.90;;;;;;4957595;28;20620;-76
2021/01/15 08:15:27;;;;;;;9.87;7.10;;;1.80;99.90;;;;;;4999077;28;20872;-78
2021/01/15 08:17:54;;;;;;;12.33;7.00;;;1.80;99.90;;;;;;5003366;28;20211;-79
2021/01/15 08:20:20;;;;;;;10.03;8.17;;;1.80;99.90;;;;;;5003571;28;20855;-78
2021/01/15 08:22:49;;;;;;;10.07;7.47;;;1.80;99.90;;;;;;5021081;28;20253;-77
2021/01/15 08:25:25;;;;;;;8.50;6.70;;;1.80;99.90;;;;;;5023832;28;20198;-81
2021/01/15 08:27:51;;;;;;;7.63;6.10;;;1.90;99.90;;;;;;5023640;28;20309;-76
2021/01/15 08:30:18;;;;;;;7.50;6.27;;;1.90;99.90;;;;;;5023862;28;20595;-76
2021/01/15 08:32:44;;;;;;;8.50;6.47;;;1.90;99.90;;;;;;5023352;28;20666;-78
2021/01/15 08:35:13;;;;;;;7.73;5.83;;;1.90;99.90;;;;;;5024281;28;20873;-82
2021/01/15 08:37:40;;;;;;;8.90;5.93;;;1.90;99.90;;;;;;5024202;28;20221;-77
2021/01/15 08:40:07;;;;;;;9.37;7.00;;;1.90;99.90;;;;;;5023025;28;20214;-76
2021/01/15 08:42:36;;;;;;;10.03;7.50;;;1.90;99.90;;;;;;5023035;28;20229;-77
2021/01/15 08:45:03;;;;;;;8.93;5.93;;;1.90;99.90;;;;;;5024454;28;20211;-82
2021/01/15 08:47:33;;;;;;;7.43;6.00;;;1.90;99.90;;;;;;5023552;28;20610;-76
2021/01/15 08:50:00;;;;;;;8.77;6.83;;;1.90;99.90;;;;;;5023560;28;20206;-76
2021/01/15 08:52:28;;;;;;;7.07;6.33;;;2.00;99.90;;;;;;5024182;28;20207;-78
2021/01/15 08:54:55;;;;;;;9.67;6.53;;;2.00;99.90;;;;;;5023710;28;21071;-82
2021/01/15 08:57:26;;;;;;;11.30;7.10;;;2.00;99.90;;;;;;5024972;28;20226;-81
2021/01/15 08:59:54;;;;;;;8.93;7.27;;;2.00;99.90;;;;;;5024134;28;20206;-76
2021/01/15 09:02:21;;;;;;;10.00;7.67;;;2.00;99.90;;;;;;5025538;28;20234;-81
2021/01/15 09:04:49;;;;;;;11.47;8.00;;;2.00;99.90;;;;;;5016233;28;20734;-82
2021/01/15 09:07:17;;;;;;;11.47;8.33;;;2.00;99.90;;;;;;5006812;28;20209;-79
2021/01/15 09:09:44;;;;;;;11.60;8.33;;;2.10;99.90;;;;;;5004888;28;20207;-80
2021/01/15 09:12:11;;;;;;;11.40;8.53;;;2.10;99.90;;;;;;5011384;23;20861;-78
2021/01/15 09:14:38;;;;;;;10.63;8.27;;;2.10;99.90;;;;;;5005395;28;20238;-81
2021/01/15 09:17:06;;;;;;;9.77;7.70;;;2.10;99.90;;;;;;5005143;28;20200;-82
2021/01/15 09:19:33;;;;;;;12.47;7.80;;;2.10;99.90;;;;;;5004146;28;20218;-78
2021/01/15 09:22:01;;;;;;;8.70;6.50;;;2.20;99.90;;;;;;5003697;28;20690;-75
2021/01/15 09:24:28;;;;;;;8.40;6.60;;;2.20;99.90;;;;;;4987543;28;20298;-78
2021/01/15 09:26:55;;;;;;;10.13;6.97;;;2.20;99.90;;;;;;4984944;28;20196;-79
2021/01/15 09:29:22;;;;;;;9.50;7.00;;;2.20;99.90;;;;;;4990069;28;20207;-82
2021/01/15 09:31:49;;;;;;;6.80;6.00;;;2.30;99.90;;;;;;5008869;28;20202;-79
2021/01/15 09:34:16;;;;;;;9.50;6.63;;;2.30;99.90;;;;;;5010046;28;20223;-77
2021/01/15 09:36:44;;;;;;;9.27;6.83;;;2.30;99.90;;;;;;5008311;28;20212;-82
2021/01/15 09:39:11;;;;;;;10.03;6.37;;;2.30;99.90;;;;;;5010685;28;20203;-83
2021/01/15 09:41:43;;;;;;;8.53;6.37;;;2.40;99.90;;;;;;5003971;28;20226;-82
2021/01/15 09:44:09;;;;;;;8.43;6.30;;;2.40;99.90;;;;;;4990490;28;20215;-81
2021/01/15 09:46:36;;;;;;;9.40;6.37;;;2.40;99.90;;;;;;4989737;28;20278;-83
2021/01/15 09:49:02;;;;;;;8.70;6.20;;;2.40;99.90;;;;;;4991386;28;20208;-82
2021/01/15 09:51:31;;;;;;;9.10;6.37;;;2.50;99.90;;;;;;4989495;28;20196;-82
2021/01/15 09:53:58;;;;;;;9.63;7.27;;;2.50;99.90;;;;;;4990320;28;20204;-83
2021/01/15 09:56:27;;;;;;;13.67;8.07;;;2.50;99.90;;;;;;4990731;28;20199;-83
2021/01/15 09:58:55;;;;;;;11.17;7.97;;;2.50;99.90;;;;;;4989422;28;20203;-80
2021/01/15 10:01:21;;;;;;;8.80;6.70;;;2.60;99.90;;;;;;4989083;28;20228;-79
2021/01/15 10:03:48;;;;;;;9.10;6.50;;;2.60;99.90;;;;;;4989226;28;20475;-82
2021/01/15 10:06:15;;;;;;;6.50;5.80;;;2.60;99.90;;;;;;4989668;28;20211;-83
2021/01/15 10:08:43;;;;;;;8.77;6.33;;;2.60;99.90;;;;;;4989752;28;20689;-82
2021/01/15 10:11:09;;;;;;;9.57;5.70;;;2.60;99.90;;;;;;4989243;28;20243;-79
2021/01/15 10:13:36;;;;;;;8.93;6.20;;;2.70;99.90;;;;;;4989965;28;20204;-85
2021/01/15 10:16:06;;;;;;;7.73;4.87;;;2.70;99.90;;;;;;4990198;28;20203;-83
2021/01/15 10:18:32;;;;;;;6.10;4.57;;;2.70;99.90;;;;;;4989670;28;20200;-83
2021/01/15 10:20:59;;;;;;;7.10;4.53;;;2.70;99.90;;;;;;4989862;28;20203;-83
2021/01/15 10:23:25;;;;;;;7.87;4.90;;;2.70;99.90;;;;;;4990016;28;20215;-85
2021/01/15 10:25:52;;;;;;;6.03;4.87;;;2.80;99.90;;;;;;4988881;28;20208;-78
2021/01/15 10:28:19;;;;;;;9.73;5.40;;;2.80;99.90;;;;;;4989590;28;20195;-84
2021/01/15 10:30:47;;;;;;;7.77;4.80;;;2.80;99.90;;;;;;4986598;28;20208;-79
2021/01/15 10:33:13;;;;;;;6.83;4.97;;;2.90;99.90;;;;;;4986745;28;20215;-79
2021/01/15 10:35:40;;;;;;;6.30;5.00;;;2.90;99.90;;;;;;4986778;28;20207;-77
2021/01/15 10:38:06;;;;;;;6.30;5.03;;;2.90;99.90;;;;;;4987199;28;20204;-79
2021/01/15 10:40:33;;;;;;;6.30;5.00;;;2.90;99.90;;;;;;4985213;28;20207;-76
2021/01/15 10:43:01;;;;;;;8.37;5.70;;;3.00;99.90;;;;;;4984190;28;20243;-77
2021/01/15 10:45:27;;;;;;;7.63;5.37;;;3.00;99.90;;;;;;4985834;28;20200;-78
2021/01/15 10:47:54;;;;;;;7.90;5.00;;;3.00;99.90;;;;;;4984943;28;20204;-87
2021/01/15 10:50:20;;;;;;;5.57;4.90;;;3.10;99.90;;;;;;4985011;28;20208;-78
2021/01/15 10:52:53;;;;;;;6.90;5.50;;;3.10;99.90;;;;;;4984605;28;20204;-78
2021/01/15 10:55:19;;;;;;;6.53;5.07;;;3.10;99.90;;;;;;4984471;28;20207;-86
2021/01/15 10:57:46;;;;;;;7.13;5.47;;;3.20;99.90;;;;;;4978647;28;20458;-83
2021/01/15 11:00:15;;;;;;;7.00;5.50;;;3.20;99.90;;;;;;4985374;28;20227;-80
2021/01/15 11:02:42;;;;;;;8.80;5.70;;;3.30;99.90;;;;;;4980894;28;20580;-80
2021/01/15 11:05:09;;;;;;;12.17;8.97;;;3.30;99.90;;;;;;4993366;28;20949;-80
2021/01/15 11:07:35;;;;;;;11.53;8.80;;;3.30;99.90;;;;;;4973886;28;20212;-85
2021/01/15 11:10:01;;;;;;;8.70;5.43;;;3.40;99.90;;;;;;4983379;28;20254;-77
2021/01/15 11:12:30;;;;;;;7.57;5.27;;;3.40;99.90;;;;;;4983541;28;20235;-83
2021/01/15 11:14:57;;;;;;;7.17;5.60;;;3.50;99.90;;;;;;4984733;28;20694;-78
2021/01/15 11:17:24;;;;;;;6.40;5.57;;;3.50;99.90;;;;;;4984620;28;20718;-80
2021/01/15 11:19:50;;;;;;;6.00;5.37;;;3.50;99.90;;;;;;4985683;28;20207;-80
2021/01/15 11:22:16;;;;;;;6.57;5.27;;;3.50;99.90;;;;;;4973229;28;20237;-80
2021/01/15 11:24:43;;;;;;;7.20;5.47;;;3.60;99.90;;;;;;4966786;28;20211;-78
2021/01/15 11:27:09;;;;;;;5.57;4.93;;;3.60;99.90;;;;;;4976098;28;20200;-79
2021/01/15 11:29:35;;;;;;;4.50;4.07;;;3.60;99.90;;;;;;4986724;28;20246;-81
2021/01/15 11:32:02;;;;;;;4.67;3.90;;;3.60;99.90;;;;;;4986508;28;20212;-78
2021/01/15 11:34:29;;;;;;;8.27;3.70;;;3.60;99.90;;;;;;4986201;28;20211;-80
2021/01/15 11:36:55;;;;;;;6.97;3.97;;;3.60;99.90;;;;;;4987643;28;20208;-79
2021/01/15 11:39:22;;;;;;;6.17;4.37;;;3.60;99.90;;;;;;4974947;28;20207;-79
2021/01/15 11:41:52;;;;;;;6.83;4.43;;;3.60;99.90;;;;;;4986209;28;20290;-78
2021/01/15 11:44:18;;;;;;;5.40;4.00;;;3.70;99.90;;;;;;4986522;28;20860;-83
2021/01/15 11:46:45;;;;;;;4.77;3.90;;;3.70;99.90;;;;;;4982998;28;20592;-82
2021/01/15 11:49:11;;;;;;;5.03;4.27;;;3.70;99.90;;;;;;4984008;28;20200;-86
2021/01/15 11:51:38;;;;;;;5.67;4.87;;;3.70;99.90;;;;;;4982201;28;20578;-84
2021/01/15 11:54:12;;;;;;;7.03;4.43;;;3.70;99.90;;;;;;4982231;28;20223;-78
2021/01/15 11:56:38;;;;;;;8.13;4.80;;;3.80;99.90;;;;;;4983788;28;20199;-79
2021/01/15 11:59:05;;;;;;;6.80;4.40;;;3.80;99.90;;;;;;4983131;28;20627;-78
2021/01/15 12:01:31;;;;;;;4.60;3.77;;;3.80;99.90;;;;;;4988185;28;20230;-84
2021/01/15 12:03:57;;;;;;;4.50;3.40;;;3.80;99.90;;;;;;5002893;28;20386;-79
2021/01/15 12:06:23;;;;;;;6.13;4.30;;;3.90;99.90;;;;;;5002760;28;20200;-79
2021/01/15 12:08:51;;;;;;;6.40;4.40;;;3.90;99.90;;;;;;5003298;28;20701;-80
2021/01/15 12:11:17;;;;;;;6.13;4.17;;;3.90;99.90;;;;;;5003387;28;21044;-79
2021/01/15 12:13:43;;;;;;;5.60;4.20;;;3.90;99.90;;;;;;4992733;28;20215;-79
2021/01/15 12:16:11;;;;;;;6.20;4.77;;;4.00;99.90;;;;;;4984184;28;20223;-80
2021/01/15 12:18:37;;;;;;;11.23;4.70;;;4.00;99.90;;;;;;4983935;28;20235;-78
2021/01/15 12:21:04;;;;;;;5.73;4.37;;;4.00;99.90;;;;;;4987368;28;20203;-85
2021/01/15 12:23:30;;;;;;;5.63;4.00;;;4.10;99.90;;;;;;4987607;28;20214;-86
2021/01/15 12:25:57;;;;;;;7.83;4.60;;;4.10;99.90;;;;;;4984916;28;20196;-77
2021/01/15 12:28:24;;;;;;;4.63;4.00;;;4.10;99.90;;;;;;4985653;28;20208;-80
2021/01/15 12:30:52;;;;;;;5.50;4.10;;;4.10;99.90;;;;;;4984647;28;20526;-81
2021/01/15 12:33:20;;;;;;;4.40;3.77;;;4.10;99.90;;;;;;4984592;28;20303;-83
2021/01/15 12:35:47;;;;;;;6.00;4.13;;;4.10;99.90;;;;;;4987105;28;20234;-80
2021/01/15 12:38:15;;;;;;;5.00;3.90;;;4.10;99.90;;;;;;4986944;28;20212;-81
2021/01/15 12:40:42;;;;;;;6.10;4.27;;;4.10;99.90;;;;;;4985790;28;20563;-81
2021/01/15 12:43:10;;;;;;;5.47;4.47;;;4.20;99.90;;;;;;4986194;28;20238;-80
2021/01/15 12:45:37;;;;;;;4.67;3.70;;;4.20;99.90;;;;;;4985123;28;20207;-77
2021/01/15 12:48:04;;;;;;;5.33;4.00;;;4.20;99.90;;;;;;4984675;28;20203;-82
2021/01/15 12:50:30;;;;;;;6.20;4.10;;;4.20;99.90;;;;;;4986824;28;20216;-84
2021/01/15 12:52:58;;;;;;;9.00;5.17;;;4.20;99.90;;;;;;4985431;28;20212;-79
2021/01/15 12:55:24;;;;;;;5.63;4.20;;;4.10;99.90;;;;;;4987061;28;20247;-85
2021/01/15 12:57:52;;;;;;;9.17;5.07;;;4.20;99.90;;;;;;4988960;28;20230;-82
2021/01/15 13:00:20;;;;;;;7.00;4.67;;;4.20;99.90;;;;;;4988506;28;20507;-85
2021/01/15 13:02:46;;;;;;;9.73;4.57;;;4.20;99.90;;;;;;4988038;28;20235;-83
2021/01/15 13:05:14;;;;;;;6.80;4.23;;;4.20;99.90;;;;;;4989980;28;20215;-85
2021/01/15 13:07:40;;;;;;;7.57;3.97;;;4.20;99.90;;;;;;4991242;28;20226;-84
2021/01/15 13:10:08;;;;;;;7.60;4.43;;;4.20;99.90;;;;;;4991183;28;20204;-79
2021/01/15 13:12:35;;;;;;;6.23;4.50;;;4.20;99.90;;;;;;4990587;28;20735;-80
2021/01/15 13:15:02;;;;;;;5.47;4.40;;;4.20;99.90;;;;;;4990633;28;20203;-87
2021/01/15 13:17:29;;;;;;;10.07;5.80;;;4.20;99.90;;;;;;4991352;28;20556;-89
2021/01/15 13:19:55;;;;;;;6.20;4.80;;;4.30;99.90;;;;;;4991714;28;20219;-80
2021/01/15 13:22:21;;;;;;;7.20;5.33;;;4.40;99.90;;;;;;4991621;28;20223;-92
2021/01/15 13:24:48;;;;;;;6.13;5.37;;;4.30;99.90;;;;;;4993907;28;20535;-94